createdAt,value
2023-05-09T00:00:11.075Z,3.80
2023-05-09T00:04:13.955Z,4.93
2023-05-09T00:08:16.923Z,4.77
2023-05-09T00:12:21.645Z,4.27
2023-05-09T00:16:24.865Z,4.73
2023-05-09T00:20:28.373Z,4.20
2023-05-09T00:24:31.048Z,4.07
2023-05-09T00:28:35.136Z,4.87
2023-05-09T00:32:37.907Z,5.60
2023-05-09T00:36:40.608Z,4.60
2023-05-09T00:40:43.266Z,4.70
2023-05-09T00:44:48.906Z,3.83
2023-05-09T00:48:52.403Z,3.90
2023-05-09T00:52:55.139Z,4.63
2023-05-09T00:56:58.099Z,4.97
2023-05-09T01:01:03.788Z,4.63
2023-05-09T01:05:07.087Z,4.80
2023-05-09T01:09:22.592Z,4.43
2023-05-09T01:13:29.523Z,5.27
2023-05-09T01:17:39.054Z,4.40
2023-05-09T01:21:45.451Z,4.60
2023-05-09T01:25:57.324Z,6.77
2023-05-09T01:30:02.267Z,4.97
2023-05-09T01:34:07.138Z,4.53
2023-05-09T01:38:12.602Z,4.90
2023-05-09T01:42:16.675Z,4.87
2023-05-09T01:46:21.363Z,4.33
2023-05-09T01:50:24.265Z,5.43
2023-05-09T01:54:27.838Z,4.40
2023-05-09T01:58:31.406Z,5.00
2023-05-09T02:02:35.833Z,4.83
2023-05-09T02:06:39.045Z,5.90
2023-05-09T02:10:43.615Z,4.77
2023-05-09T02:14:46.341Z,5.30
2023-05-09T02:18:50.386Z,5.80
2023-05-09T02:22:53.339Z,6.60
2023-05-09T02:26:56.760Z,4.60
2023-05-09T02:31:01.203Z,7.27
2023-05-09T02:35:06.378Z,5.17
2023-05-09T02:39:09.187Z,5.30
2023-05-09T02:43:12.411Z,5.73
2023-05-09T02:47:15.158Z,5.87
2023-05-09T02:51:19.247Z,5.30
2023-05-09T02:55:21.975Z,5.27
2023-05-09T02:59:24.630Z,5.87
2023-05-09T03:03:27.448Z,5.97
2023-05-09T03:07:31.939Z,5.50
2023-05-09T03:11:36.580Z,5.97
2023-05-09T03:15:39.275Z,5.93
2023-05-09T03:19:42.010Z,5.97
2023-05-09T03:23:49.237Z,6.37
2023-05-09T03:27:51.892Z,5.60
2023-05-09T03:31:54.662Z,6.20
2023-05-09T03:35:57.354Z,6.33
2023-05-09T03:40:01.422Z,6.70
2023-05-09T03:44:04.363Z,6.47
2023-05-09T03:48:09.534Z,6.57
2023-05-09T03:52:14.795Z,6.40
2023-05-09T03:56:18.909Z,7.03
2023-05-09T04:00:22.368Z,7.10
2023-05-09T04:04:25.035Z,7.07
2023-05-09T04:08:28.161Z,7.43
2023-05-09T04:12:32.246Z,7.00
2023-05-09T04:16:34.910Z,7.30
2023-05-09T04:20:37.619Z,7.67
2023-05-09T04:24:40.591Z,7.53
2023-05-09T04:28:44.632Z,7.70
2023-05-09T04:32:48.928Z,6.37
2023-05-09T04:36:52.277Z,7.83
2023-05-09T04:40:55.122Z,8.10
2023-05-09T04:44:59.120Z,7.47
2023-05-09T04:49:03.058Z,8.00
2023-05-09T04:53:05.946Z,7.27
2023-05-09T04:57:17.050Z,7.30
2023-05-09T05:01:23.130Z,7.47
2023-05-09T05:05:27.008Z,9.13
2023-05-09T05:09:30.052Z,7.30
2023-05-09T05:13:32.801Z,7.33
2023-05-09T05:17:36.873Z,7.03
2023-05-09T05:21:39.544Z,7.80
2023-05-09T05:25:42.564Z,8.00
2023-05-09T05:29:45.536Z,8.80
2023-05-09T05:33:49.651Z,9.00
2023-05-09T05:37:52.468Z,7.43
2023-05-09T05:41:55.310Z,7.47
2023-05-09T05:45:58.454Z,8.23
2023-05-09T05:50:03.459Z,8.93
2023-05-09T05:54:06.257Z,8.17
2023-05-09T05:58:12.036Z,7.80
2023-05-09T06:02:14.926Z,8.63
2023-05-09T06:06:19.264Z,8.20
2023-05-09T06:10:22.350Z,8.00
2023-05-09T06:14:25.282Z,7.40
2023-05-09T06:18:30.830Z,8.03
2023-05-09T06:22:39.744Z,5.97
2023-05-09T06:26:42.510Z,8.67
2023-05-09T06:30:45.182Z,7.23
2023-05-09T06:34:48.219Z,5.63
2023-05-09T06:38:53.177Z,5.53
2023-05-09T06:42:55.980Z,7.17
2023-05-09T06:46:58.806Z,7.50
2023-05-09T06:51:01.528Z,7.70
2023-05-09T06:55:06.775Z,5.63
2023-05-09T06:59:13.334Z,6.73
2023-05-09T07:03:16.282Z,5.83
2023-05-09T07:07:19.190Z,5.07
2023-05-09T07:11:23.601Z,5.30
2023-05-09T07:15:39.807Z,5.83
2023-05-09T07:19:44.442Z,5.43
2023-05-09T07:23:47.763Z,6.17
2023-05-09T07:27:51.901Z,5.10
2023-05-09T07:31:55.706Z,6.37
2023-05-09T07:35:59.949Z,4.60
2023-05-09T07:40:03.384Z,4.80
2023-05-09T07:44:09.384Z,4.47
2023-05-09T07:48:12.540Z,5.63
2023-05-09T07:52:17.203Z,4.27
2023-05-09T07:56:19.938Z,4.40
2023-05-09T08:00:25.951Z,4.37
2023-05-09T08:04:28.734Z,4.43
2023-05-09T08:08:33.400Z,5.47
2023-05-09T08:12:36.461Z,5.90
2023-05-09T08:16:40.608Z,4.37
2023-05-09T08:20:43.433Z,4.80
2023-05-09T08:24:48.853Z,5.50
2023-05-09T08:28:51.511Z,4.20
2023-05-09T08:32:55.934Z,3.50
2023-05-09T08:36:58.732Z,5.70
2023-05-09T08:41:01.863Z,4.60
2023-05-09T08:45:08.695Z,4.17
2023-05-09T08:49:13.374Z,4.27
2023-05-09T08:53:16.341Z,4.07
2023-05-09T08:57:19.201Z,4.37
2023-05-09T09:01:22.466Z,4.60
2023-05-09T09:05:40.617Z,4.10
2023-05-09T09:09:48.132Z,3.63
2023-05-09T09:13:53.798Z,4.47
2023-05-09T09:17:57.607Z,4.20
2023-05-09T09:22:06.271Z,4.03
2023-05-09T09:26:09.278Z,4.67
2023-05-09T09:30:13.807Z,7.07
2023-05-09T09:34:22.770Z,4.00
2023-05-09T09:38:27.119Z,3.40
2023-05-09T09:42:41.752Z,3.93
2023-05-09T09:46:46.614Z,3.47
2023-05-09T09:50:51.927Z,3.70
2023-05-09T09:54:57.645Z,3.83
2023-05-09T09:59:10.715Z,3.47
2023-05-09T10:03:16.034Z,3.50
2023-05-09T10:07:20.805Z,3.07
2023-05-09T10:11:24.958Z,3.53
2023-05-09T10:15:35.680Z,4.93
2023-05-09T10:19:47.153Z,4.33
2023-05-09T10:23:52.288Z,5.00
2023-05-09T10:27:58.459Z,3.03
2023-05-09T10:32:02.697Z,2.80
2023-05-09T10:36:06.336Z,5.37
2023-05-09T10:40:13.965Z,3.77
2023-05-09T10:44:19.124Z,2.90
2023-05-09T10:48:22.668Z,3.33
2023-05-09T10:52:25.960Z,3.90
2023-05-09T10:56:31.897Z,2.87
2023-05-09T11:00:42.254Z,2.80
2023-05-09T11:04:45.248Z,2.63
2023-05-09T11:08:49.234Z,2.40
2023-05-09T11:12:57.911Z,3.87
2023-05-09T11:17:05.272Z,3.10
2023-05-09T11:21:11.323Z,4.43
2023-05-09T11:25:17.099Z,4.53
2023-05-09T11:29:20.381Z,5.80
2023-05-09T11:33:25.346Z,2.70
2023-05-09T11:37:32.312Z,3.80
2023-05-09T11:41:42.318Z,3.50
2023-05-09T11:45:47.764Z,2.70
2023-05-09T11:49:52.595Z,3.00
2023-05-09T11:53:58.391Z,3.60
2023-05-09T11:58:01.442Z,3.40
2023-05-09T12:02:05.638Z,3.50
2023-05-09T12:06:10.120Z,4.37
2023-05-09T12:10:15.449Z,2.70
2023-05-09T12:14:30.582Z,3.33
2023-05-09T12:18:33.204Z,2.60
2023-05-09T12:22:38.423Z,4.40
2023-05-09T12:26:41.327Z,2.40
2023-05-09T12:30:45.123Z,2.27
2023-05-09T12:34:49.355Z,2.20
2023-05-09T12:38:56.478Z,2.40
2023-05-09T12:43:00.934Z,1.70
2023-05-09T12:47:04.760Z,4.27
2023-05-09T12:51:08.599Z,4.33
2023-05-09T12:55:14.581Z,2.13
2023-05-09T12:59:21.637Z,3.80
2023-05-09T13:03:25.329Z,2.30
2023-05-09T13:07:28.298Z,3.20
2023-05-09T13:11:32.573Z,3.03
2023-05-09T13:15:36.242Z,1.57
2023-05-09T13:19:39.563Z,1.83
2023-05-09T13:23:45.769Z,2.83
2023-05-09T13:27:49.864Z,2.87
2023-05-09T13:31:55.047Z,3.57
2023-05-09T13:35:57.834Z,2.10
2023-05-09T13:40:00.803Z,1.63
2023-05-09T13:44:06.218Z,2.53
2023-05-09T13:48:09.508Z,2.90
2023-05-09T13:52:12.419Z,3.07
2023-05-09T13:56:15.430Z,2.33
2023-05-09T14:00:21.376Z,1.97
2023-05-09T14:04:24.455Z,6.27
2023-05-09T14:08:27.248Z,1.97
2023-05-09T14:12:30.043Z,5.23
2023-05-09T14:16:37.082Z,5.77
2023-05-09T14:20:40.608Z,1.70
2023-05-09T14:24:43.799Z,2.03
2023-05-09T14:28:46.788Z,2.97
2023-05-09T14:32:51.362Z,1.93
2023-05-09T14:36:54.055Z,3.00
2023-05-09T14:40:57.374Z,1.60
2023-05-09T14:45:00.147Z,2.10
2023-05-09T14:49:04.365Z,5.93
2023-05-09T14:53:07.714Z,3.27
2023-05-09T14:57:10.685Z,1.70
2023-05-09T15:01:14.561Z,1.90
2023-05-09T15:05:19.318Z,5.33
2023-05-09T15:09:24.370Z,2.30
2023-05-09T15:13:27.087Z,2.00
2023-05-09T15:17:29.800Z,1.80
2023-05-09T15:21:34.422Z,2.80
2023-05-09T15:25:37.554Z,1.80
2023-05-09T15:29:41.811Z,1.80
2023-05-09T15:33:47.807Z,2.20
2023-05-09T15:37:53.115Z,2.47
2023-05-09T15:41:55.826Z,1.60
2023-05-09T15:45:58.941Z,2.27
2023-05-09T15:50:01.762Z,1.80
2023-05-09T15:54:06.202Z,1.77
2023-05-09T15:58:11.049Z,1.70
2023-05-09T16:02:13.754Z,1.97
2023-05-09T16:06:16.576Z,2.63
2023-05-09T16:10:21.016Z,2.07
2023-05-09T16:14:26.053Z,2.13
2023-05-09T16:18:28.904Z,2.10
2023-05-09T16:22:31.766Z,1.87
2023-05-09T16:26:36.618Z,3.90
2023-05-09T16:30:39.698Z,2.83
2023-05-09T16:34:42.435Z,2.90
2023-05-09T16:38:45.180Z,3.00
2023-05-09T16:42:49.350Z,1.90
2023-05-09T16:46:52.076Z,2.10
2023-05-09T16:50:54.729Z,3.10
2023-05-09T16:54:59.324Z,6.33
2023-05-09T16:59:03.635Z,4.30
2023-05-09T17:03:07.002Z,2.17
2023-05-09T17:07:09.893Z,3.50
2023-05-09T17:11:12.735Z,2.70
2023-05-09T17:15:17.219Z,3.60
2023-05-09T17:19:23.177Z,2.67
2023-05-09T17:23:26.323Z,3.00
2023-05-09T17:27:29.165Z,2.63
2023-05-09T17:31:33.424Z,2.67
2023-05-09T17:35:38.708Z,2.43
2023-05-09T17:39:44.752Z,5.10
2023-05-09T17:43:53.698Z,2.90
2023-05-09T17:47:57.849Z,2.10
2023-05-09T17:52:01.346Z,2.80
2023-05-09T17:56:04.636Z,3.20
2023-05-09T18:00:11.430Z,4.80
2023-05-09T18:04:15.643Z,3.23
2023-05-09T18:08:18.401Z,2.27
2023-05-09T18:12:21.332Z,3.43
2023-05-09T18:16:24.687Z,3.70
2023-05-09T18:20:29.478Z,2.30
2023-05-09T18:24:32.415Z,2.60
2023-05-09T18:28:39.358Z,2.20
2023-05-09T18:32:42.638Z,2.20
2023-05-09T18:36:47.078Z,2.33
2023-05-09T18:40:51.734Z,2.70
2023-05-09T18:44:54.558Z,3.23
2023-05-09T18:48:57.518Z,2.23
2023-05-09T18:53:04.076Z,2.30
2023-05-09T18:57:06.848Z,2.60
2023-05-09T19:01:11.663Z,2.17
2023-05-09T19:05:14.626Z,2.50
2023-05-09T19:09:18.868Z,2.33
2023-05-09T19:13:21.675Z,2.37
2023-05-09T19:17:28.045Z,3.97
2023-05-09T19:21:30.750Z,2.80
2023-05-09T19:25:36.728Z,3.90
2023-05-09T19:29:39.666Z,3.70
2023-05-09T19:33:45.865Z,3.03
2023-05-09T19:37:48.670Z,4.10
2023-05-09T19:41:53.227Z,3.83
2023-05-09T19:45:56.327Z,2.80
2023-05-09T19:49:59.261Z,3.53
2023-05-09T19:54:02.060Z,3.87
2023-05-09T19:58:06.313Z,4.47
2023-05-09T20:02:11.969Z,2.73
2023-05-09T20:06:18.767Z,2.87
2023-05-09T20:10:21.752Z,4.07
2023-05-09T20:14:26.078Z,3.40
2023-05-09T20:18:28.839Z,2.80
2023-05-09T20:22:31.607Z,2.77
2023-05-09T20:26:34.423Z,3.33
2023-05-09T20:30:38.778Z,3.33
2023-05-09T20:34:41.622Z,3.00
2023-05-09T20:38:44.267Z,3.40
2023-05-09T20:42:47.206Z,3.47
2023-05-09T20:46:51.558Z,3.30
2023-05-09T20:50:54.255Z,3.03
2023-05-09T20:54:59.085Z,2.90
2023-05-09T20:59:04.184Z,4.33
2023-05-09T21:03:10.148Z,2.70
2023-05-09T21:07:13.108Z,2.97
2023-05-09T21:11:16.064Z,3.40
2023-05-09T21:15:18.989Z,3.70
2023-05-09T21:19:23.028Z,2.90
2023-05-09T21:23:25.672Z,3.77
2023-05-09T21:27:30.945Z,3.00
2023-05-09T21:31:34.329Z,2.87
2023-05-09T21:35:38.437Z,3.50
2023-05-09T21:39:41.386Z,3.87
2023-05-09T21:43:44.099Z,3.33
2023-05-09T21:47:46.887Z,3.00
2023-05-09T21:51:51.161Z,3.87
2023-05-09T21:55:53.797Z,2.90
2023-05-09T22:00:01.016Z,2.80
2023-05-09T22:04:03.856Z,3.03
2023-05-09T22:08:08.140Z,3.80
2023-05-09T22:12:10.882Z,3.60
2023-05-09T22:16:14.269Z,8.63
2023-05-09T22:20:17.418Z,4.53
2023-05-09T22:24:21.692Z,5.23
2023-05-09T22:28:24.432Z,5.00
2023-05-09T22:35:05.169Z,5.67
2023-05-09T22:43:06.748Z,6.10
2023-05-09T22:47:09.626Z,6.53
2023-05-09T22:51:12.593Z,6.37
2023-05-09T22:55:15.366Z,7.37
2023-05-09T22:59:19.429Z,7.53
2023-05-09T23:03:22.212Z,6.90
2023-05-09T23:07:25.331Z,7.60
2023-05-09T23:11:27.982Z,7.53
2023-05-09T23:15:32.175Z,8.07
2023-05-09T23:19:38.102Z,7.50
2023-05-09T23:23:40.766Z,7.60
2023-05-09T23:27:44.567Z,7.47
2023-05-09T23:31:48.752Z,7.90
2023-05-09T23:35:51.518Z,7.90
2023-05-09T23:39:54.297Z,7.83
2023-05-09T23:43:57.947Z,7.93
2023-05-09T23:48:02.424Z,7.63
2023-05-09T23:52:09.715Z,8.37
2023-05-09T23:56:12.672Z,8.07
